Latest Weather Observations for Albury

IDV60801

Issued at 11:02 am EDT Sunday 11 December 2016 (issued every 30 minutes, with the page automatically refreshed every 10 minutes)

About weather observations | Map of weather stations | Latest weather observations for VIC | Other Formats
Station Details ID: 072160 Name: ALBURY AIRPORT AWS Lat: -36.07 Lon: 146.95 Height: 163.5 m
Data from the previous 72 hours. | See also: Recent months at Albury
Date/Time
EDT
Temp
°C
App
Temp
°C
Dew
Point
°C
Rel
Hum
%
Delta-T
°C
Wind Press
QNH
hPa
Press
MSL
hPa
Rain since
9am
mm
Dir  Spd
km/h
Gust
km/h
Spd
kts
Gust
kts
11/11:00am 24.4 22.9 8.4 36 8.6 ESE 6 9 3 5 1021.1 1020.5 0.0
11/10:30am 23.4 20.8 9.4 41 7.6 ESE 13 22 7 12 1021.3 1020.7 0.0
11/10:00am 22.2 20.7 10.7 48 6.4 ENE 9 15 5 8 1021.3 1020.7 0.0
11/09:30am 20.8 18.9 10.6 52 5.6 ESE 11 17 6 9 1021.5 1021.0 0.0
11/09:00am 19.2 17.7 10.5 57 4.7 SSE 9 13 5 7 1021.7 1021.2 0.0
11/08:30am 18.1 16.9 10.2 60 4.2 SE 7 9 4 5 1021.6 1021.1 0.0
11/08:00am 16.3 15.9 9.9 66 3.4 S 2 7 1 4 1021.6 1021.1 0.0
11/07:30am 15.5 15.0 9.2 66 3.3 ESE 2 7 1 4 1021.3 1020.7 0.0
11/07:00am 14.5 13.9 8.9 69 2.9 E 2 7 1 4 1020.8 1020.2 0.0
11/06:30am 12.2 11.9 8.5 78 1.8 CALM 0 0 0 0 1020.6 1020.0 0.0
11/06:00am 11.3 9.7 8.0 80 1.6 NNE 6 7 3 4 1020.1 1019.5 0.0
11/05:30am 11.3 10.7 7.4 77 1.9 CALM 0 0 0 0 1019.7 1019.1 0.0
11/05:00am 12.0 11.6 8.1 77 1.9 CALM 0 0 0 0 1019.4 1018.8 0.0
11/04:30am 12.2 11.8 8.1 76 2.0 CALM 0 0 0 0 1019.3 1018.7 0.0
11/04:00am 12.2 10.9 7.5 73 2.3 WSW 4 7 2 4 1019.3 1018.7 0.0
11/03:30am 13.1 12.7 8.2 72 2.4 CALM 0 0 0 0 1019.3 1018.7 0.0
11/03:00am 13.1 12.3 8.2 72 2.4 SE 2 6 1 3 1019.3 1018.7 0.0
11/02:30am 14.3 12.9 8.7 69 2.9 ESE 6 9 3 5 1019.3 1018.7 0.0
11/02:00am 14.3 13.2 8.3 67 3.0 ESE 4 6 2 3 1019.4 1018.8 0.0
11/01:30am 14.4 13.7 7.0 61 3.6 CALM 0 0 0 0 1019.5 1018.9 0.0
11/01:00am 14.6 14.2 8.1 65 3.3 CALM 0 0 0 0 1019.4 1018.8 0.0
11/12:30am 15.8 15.1 7.1 56 4.3 CALM 0 0 0 0 1019.4 1018.8 0.0
11/12:00am 17.3 16.2 7.1 51 5.1 WSW 2 7 1 4 1019.4 1018.8 0.0
 
Date/Time
EDT
Temp
°C
App
Temp
°C
Dew
Point
°C
Rel
Hum
%
Delta-T
°C
Wind Press
QNH
hPa
Press
MSL
hPa
Rain since
9am
mm
Dir  Spd
km/h
Gust
km/h
Spd
kts
Gust
kts
10/11:30pm 18.6 16.8 7.1 47 5.8 WSW 6 6 3 3 1019.5 1018.9 0.0
10/11:00pm 18.3 15.0 6.5 46 5.9 W 13 20 7 11 1019.4 1018.8 0.0
10/10:30pm 19.3 15.9 5.7 41 6.7 WSW 13 20 7 11 1019.4 1018.8 0.0
10/10:00pm 19.8 16.0 5.8 40 7.0 WSW 15 19 8 10 1019.2 1018.6 0.0
10/09:30pm 18.9 16.0 6.7 45 6.2 W 11 13 6 7 1018.9 1018.3 0.0
10/09:00pm 20.7 18.5 5.5 37 7.6 NW 6 7 3 4 1018.4 1017.8 0.0
10/08:30pm 22.0 19.2 5.0 33 8.5 W 9 13 5 7 1018.4 1017.8 0.0
10/08:00pm 23.6 20.5 5.5 31 9.2 WSW 11 13 6 7 1018.1 1017.5 0.0
10/07:30pm 24.9 20.8 4.6 27 10.2 W 15 19 8 10 1017.9 1017.3 0.0
10/07:00pm 25.9 22.9 6.0 28 10.3 W 11 13 6 7 1017.7 1017.1 0.0
10/06:30pm 25.8 22.9 4.9 26 10.7 S 9 15 5 8 1017.5 1016.9 0.0
10/06:00pm 26.7 24.1 6.2 27 10.7 W 9 17 5 9 1017.4 1016.8 0.0
10/05:30pm 26.2 23.3 6.3 28 10.4 SSW 11 22 6 12 1017.5 1016.9 0.0
10/05:00pm 26.8 24.2 6.2 27 10.8 W 9 22 5 12 1017.8 1017.2 0.0
10/04:30pm 26.2 22.7 7.3 30 10.1 W 15 22 8 12 1018.1 1017.5 0.0
10/04:00pm 25.8 23.4 6.9 30 10.0 SSE 9 19 5 10 1018.4 1017.8 0.0
10/03:30pm 25.8 23.0 6.9 30 10.0 WSW 11 17 6 9 1018.9 1018.3 0.0
10/03:00pm 25.2 22.1 7.3 32 9.5 SSW 13 24 7 13 1019.2 1018.6 0.0
10/02:30pm 24.9 22.7 8.0 34 9.1 S 9 17 5 9 1019.6 1019.0 0.0
10/02:00pm 24.6 21.9 7.3 33 9.1 NNW 11 24 6 13 1019.9 1019.3 0.0
10/01:30pm 24.1 21.7 6.8 33 9.0 SE 9 17 5 9 1020.3 1019.7 0.0
10/01:00pm 23.5 21.4 6.7 34 8.7 NNW 7 15 4 8 1020.8 1020.2 0.0
10/12:30pm 22.4 19.2 7.0 37 8.0 W 13 24 7 13 1021.0 1020.4 0.0
10/12:00pm 22.0 20.2 7.0 38 7.7 SSW 6 11 3 6 1021.2 1020.6 0.0
10/11:30am 21.2 18.8 7.1 40 7.3 NW 9 13 5 7 1021.5 1021.0 0.0
10/11:00am 20.6 18.5 8.3 45 6.4 E 9 13 5 7 1021.8 1021.3 0.0
10/10:30am 18.9 17.1 7.0 46 6.0 NNE 6 9 3 5 1021.8 1021.3 0.0
10/10:00am 17.9 16.1 7.3 50 5.4 SSW 6 9 3 5 1022.2 1021.6 0.0
10/09:30am 16.8 14.8 6.9 52 4.9 E 7 13 4 7 1022.2 1021.6 0.0
10/09:00am 15.9 14.1 7.1 56 4.4 SSE 6 13 3 7 1022.2 1021.6 0.0
10/08:30am 15.4 13.6 7.2 58 4.1 SE 6 9 3 5 1021.9 1021.4 0.0
10/08:00am 13.9 11.9 7.0 63 3.4 SSE 7 9 4 5 1021.7 1021.2 0.0
10/07:30am 13.4 11.3 6.7 64 3.3 SSE 7 9 4 5 1021.4 1020.9 0.0
10/07:00am 11.4 10.5 6.1 70 2.5 CALM 0 0 0 0 1021.0 1020.4 0.0
10/06:30am 8.8 7.4 5.5 80 1.5 NNW 2 6 1 3 1020.5 1019.9 0.0
10/06:00am 7.9 6.4 4.8 81 1.4 NW 2 9 1 5 1020.1 1019.5 0.0
10/05:30am 8.1 6.3 5.2 82 1.3 SW 4 7 2 4 1019.8 1019.2 0.0
10/05:00am 8.4 6.0 5.2 80 1.4 NW 7 9 4 5 1019.3 1018.7 0.0
10/04:30am 9.0 7.8 4.8 75 1.9 CALM 0 0 0 0 1019.1 1018.5 0.0
10/04:00am 8.8 7.2 4.6 75 1.9 W 2 6 1 3 1019.0 1018.4 0.0
10/03:30am 8.9 6.9 4.5 74 2.0 SSW 4 6 2 3 1019.0 1018.4 0.0
10/03:00am 8.7 7.3 5.3 79 1.5 SSE 2 6 1 3 1019.1 1018.5 0.0
10/02:30am 9.6 8.2 5.4 75 1.9 SE 2 7 1 4 1019.3 1018.7 0.0
10/02:15am 9.6 8.4 4.8 72 2.2 CALM 0 0 0 0 1019.3 1018.7 0.0
10/02:00am 10.0 8.9 5.2 72 2.2 CALM 0 6 0 3 1019.4 1018.8 0.0
10/01:56am 10.0 8.5 5.2 72 2.2 SE 2 7 1 4 1019.3 1018.7 0.0
10/01:30am 9.8 7.2 4.4 69 2.4 S 7 9 4 5 1019.3 1018.7 0.0
10/01:14am 10.7 8.7 4.6 66 2.8 SE 4 6 2 3 1019.2 1018.6 0.0
10/01:00am 11.7 9.4 4.7 62 3.2 SSE 6 7 3 4 1019.2 1018.6 0.0
10/12:59am 11.7 9.4 4.7 62 3.2 SSE 6 7 3 4 1019.2 1018.6 0.0
10/12:30am 12.1 8.8 4.3 59 3.6 WSW 11 17 6 9 1019.4 1018.8 0.0
10/12:00am 11.5 7.8 4.3 61 3.3 W 13 15 7 8 1019.3 1018.7 0.0
 
Date/Time
EDT
Temp
°C
App
Temp
°C
Dew
Point
°C
Rel
Hum
%
Delta-T
°C
Wind Press
QNH
hPa
Press
MSL
hPa
Rain since
9am
mm
Dir  Spd
km/h
Gust
km/h
Spd
kts
Gust
kts
09/11:30pm 12.7 9.0 4.2 56 3.9 WSW 13 19 7 10 1019.2 1018.6 0.0
09/11:00pm 13.2 9.4 4.1 54 4.2 W 13 15 7 8 1019.3 1018.7 0.0
09/10:30pm 13.7 10.0 4.3 53 4.3 WSW 13 20 7 11 1019.1 1018.5 0.0
09/10:00pm 14.5 9.7 4.8 52 4.5 WSW 19 26 10 14 1018.9 1018.3 0.0
09/09:30pm 15.0 10.1 5.2 52 4.7 WSW 20 28 11 15 1018.6 1018.0 0.0
09/09:00pm 15.6 11.2 4.9 49 5.1 WSW 17 22 9 12 1018.3 1017.7 0.0
09/08:30pm 16.4 10.7 4.8 46 5.5 SW 24 33 13 18 1017.8 1017.2 0.0
09/08:00pm 17.4 12.4 4.7 43 6.1 WSW 20 32 11 17 1017.3 1016.7 0.0
09/07:30pm 18.3 12.3 5.2 42 6.4 W 26 39 14 21 1016.8 1016.2 0.0
09/07:00pm 18.9 13.2 4.7 39 6.9 WSW 24 37 13 20 1016.0 1015.3 0.0
09/06:30pm 19.8 14.1 4.7 37 7.4 WSW 24 33 13 18 1015.4 1014.8 0.0
09/06:00pm 19.8 14.6 5.5 39 7.1 WSW 22 35 12 19 1015.3 1014.7 0.0
09/05:30pm 19.7 13.6 5.0 38 7.2 WSW 26 43 14 23 1015.2 1014.6 0.0
09/05:00pm 19.9 14.0 4.0 35 7.7 WSW 24 33 13 18 1015.1 1014.5 0.0
09/04:30pm 20.6 14.9 5.0 36 7.7 SW 24 35 13 19 1015.1 1014.5 0.0
09/04:00pm 19.9 13.9 5.2 38 7.2 WSW 26 39 14 21 1015.0 1014.4 0.0
09/03:30pm 20.2 14.1 4.7 36 7.6 WSW 26 43 14 23 1015.4 1014.8 0.0
09/03:00pm 19.4 13.2 4.4 37 7.3 WSW 26 37 14 20 1015.5 1014.9 0.0
09/02:53pm 19.3 12.8 4.6 38 7.1 WSW 28 46 15 25 1015.5 1014.9 0.0
09/02:30pm 19.3 12.6 3.5 35 7.5 WSW 28 43 15 23 1015.2 1014.6 0.0
09/02:00pm 18.8 11.8 4.2 38 7.0 W 30 44 16 24 1015.1 1014.5 0.0
09/01:30pm 18.4 12.1 3.8 38 6.9 WSW 26 35 14 19 1015.4 1014.8 0.0
09/01:00pm 18.8 12.9 3.8 37 7.1 SW 24 33 13 18 1015.3 1014.7 0.0
09/12:30pm 17.6 11.8 4.2 41 6.4 SW 24 35 13 19 1015.3 1014.7 0.0
09/12:00pm 16.1 10.1 3.2 42 5.9 WSW 24 39 13 21 1015.2 1014.6 0.0
09/11:30am 16.8 10.3 4.5 44 5.8 WSW 28 43 15 23 1014.9 1014.3 0.0
09/11:00am 16.7 10.5 4.4 44 5.8 SW 26 37 14 20 1014.6 1014.0 0.0
09/10:30am 15.0 8.4 4.4 49 5.0 WSW 28 41 15 22 1014.2 1013.6 0.0
09/10:00am 15.5 9.0 4.8 49 5.1 WSW 28 37 15 20 1013.9 1013.3 0.0
09/09:30am 14.9 9.6 4.9 51 4.7 WSW 22 30 12 16 1013.6 1013.0 0.0
09/09:00am 14.0 7.5 4.9 54 4.3 WSW 28 39 15 21 1013.2 1012.6 1.0
09/08:30am 13.1 6.6 4.8 57 3.9 WSW 28 39 15 21 1012.6 1012.0 1.0
09/08:00am 12.8 7.2 5.5 61 3.4 WSW 24 32 13 17 1012.1 1011.5 1.0
09/07:30am 12.0 8.3 6.3 68 2.7 W 15 22 8 12 1011.8 1011.2 1.0
09/07:00am 11.2 7.4 5.9 70 2.5 W 15 22 8 12 1011.2 1010.6 1.0
09/06:30am 10.5 6.7 5.7 72 2.2 W 15 24 8 13 1010.4 1009.7 1.0
09/06:00am 10.1 6.3 5.7 74 2.0 WNW 15 24 8 13 1009.9 1009.2 1.0
09/05:30am 10.6 6.4 5.8 72 2.2 W 17 22 9 12 1009.2 1008.6 1.0
09/05:00am 11.1 6.5 5.4 68 2.6 W 19 30 10 16 1008.7 1008.1 1.0
09/04:30am 11.5 6.7 5.6 67 2.8 WSW 20 32 11 17 1008.3 1007.7 1.0
09/04:00am 11.9 6.4 5.8 66 2.9 WSW 24 41 13 22 1007.9 1007.3 1.0
09/03:30am 12.2 5.9 5.8 65 3.0 W 28 43 15 23 1007.4 1006.8 1.0
09/03:00am 13.0 7.4 7.0 67 2.9 WSW 26 43 14 23 1007.0 1006.4 1.0
09/02:30am 13.2 7.5 8.3 72 2.5 WSW 28 41 15 22 1006.9 1006.3 1.0
09/02:00am 13.2 8.4 8.7 74 2.3 W 24 33 13 18 1006.6 1006.0 1.0
09/01:30am 13.0 9.0 8.9 76 2.1 W 20 28 11 15 1006.5 1005.9 1.0
09/01:00am 13.4 8.9 8.7 73 2.4 W 22 30 12 16 1006.4 1005.8 1.0
09/12:30am 13.5 9.4 8.8 73 2.4 WSW 20 30 11 16 1006.3 1005.7 1.0
09/12:00am 13.7 8.9 8.7 72 2.5 W 24 32 13 17 1006.1 1005.5 1.0
 
Date/Time
EDT
Temp
°C
App
Temp
°C
Dew
Point
°C
Rel
Hum
%
Delta-T
°C
Wind Press
QNH
hPa
Press
MSL
hPa
Rain since
9am
mm
Dir  Spd
km/h
Gust
km/h
Spd
kts
Gust
kts
08/11:30pm 14.1 10.4 9.5 74 2.4 W 19 26 10 14 1006.0 1005.4 1.0
08/11:00pm 13.6 12.0 11.7 88 1.0 W 11 13 6 7 1005.9 1005.3 1.0
08/10:30pm 13.5 13.7 11.9 90 0.9 SE 2 6 1 3 1005.6 1005.0 1.0
08/10:00pm 13.4 13.1 11.6 89 1.0 SSE 4 7 2 4 1005.5 1004.9 1.0
08/09:30pm 14.1 12.8 11.4 84 1.5 N 9 11 5 6 1005.0 1004.3 1.0
08/09:00pm 13.9 12.6 11.4 85 1.3 NNE 9 11 5 6 1004.6 1003.9 1.0
08/08:30pm 14.6 13.4 11.6 82 1.6 ENE 9 13 5 7 1004.1 1003.4 1.0
08/08:00pm 15.1 14.3 11.1 77 2.2 ENE 6 11 3 6 1003.6 1002.9 1.0
08/07:30pm 15.9 15.1 10.9 72 2.7 NE 6 7 3 4 1003.5 1002.8 1.0
08/07:00pm 15.7 15.3 11.1 74 2.5 NNE 4 7 2 4 1003.4 1002.7 1.0
08/06:30pm 15.5 14.8 11.3 76 2.3 WNW 6 9 3 5 1003.1 1002.4 1.0
08/06:00pm 14.6 14.1 11.9 84 1.5 WNW 6 9 3 5 1002.6 1002.0 1.0
08/05:30pm 13.5 12.2 11.4 87 1.1 SW 9 13 5 7 1002.2 1001.6 1.0
08/05:00pm 13.7 11.9 10.7 82 1.6 WNW 11 17 6 9 1002.9 1002.3 0.8
08/04:30pm 13.6 10.5 10.2 80 1.8 WSW 17 28 9 15 1002.1 1001.5 0.6
08/04:00pm 14.1 10.8 10.9 81 1.7 W 19 32 10 17 1002.0 1001.4 0.6
08/03:30pm 14.3 10.4 12.0 86 1.3 W 24 43 13 23 1000.8 1000.2 0.6
08/03:00pm 16.4 10.3 14.1 86 1.3 W 39 59 21 32 1001.1 1000.5 0.4
08/02:59pm 16.4 9.9 13.9 85 1.4 W 41 59 22 32 1001.2 1000.6 0.4
08/02:46pm 20.1 16.0 15.9 77 2.5 NW 32 57 17 31 1001.1 1000.5 0.4
08/02:45pm 21.0 17.5 16.6 76 2.7 NW 30 50 16 27 1000.9 1000.3 0.4
08/02:30pm 21.8 19.4 16.5 72 3.2 NW 24 43 13 23 1000.5 999.9 0.2
08/02:00pm 22.4 21.9 16.0 67 3.9 NW 13 17 7 9 999.6 998.9 0.0
08/01:30pm 22.7 20.7 15.0 61 4.6 W 19 28 10 15 1000.1 999.4 0.0
08/01:04pm 24.6 20.3 13.2 49 6.7 WNW 28 48 15 26 1000.3 999.7 0.0
08/01:00pm 25.9 22.6 12.7 44 7.7 WNW 22 32 12 17 1000.2 999.6 0.0
08/12:30pm 26.4 19.0 11.3 39 8.6 WNW 41 63 22 34 1000.6 1000.0 0.0
08/12:08pm 27.5 19.8 10.2 34 9.8 NW 41 59 22 32 1000.7 1000.1 0.0
08/12:00pm 28.5 20.2 9.2 30 10.8 NW 43 59 23 32 1000.4 999.8 0.0
08/11:30am 28.8 22.3 9.0 29 11.0 NNW 33 52 18 28 1000.8 1000.2 0.0
08/11:09am 28.8 22.5 9.0 29 11.0 NNW 32 50 17 27 1001.2 1000.6 0.0

Other Formats:

Comma delimited format used in spreadsheet applications
http://www.bom.gov.au/fwo/IDV60801/IDV60801.95896.axf

JavaScript Object Notation format (JSON) in row-major order
http://www.bom.gov.au/fwo/IDV60801/IDV60801.95896.json